sensor_id;sensor_type;location;lat;lon;timestamp;temperature;humidity
60234;DHT22;49514;43.538;-5.708;2023-07-29T00:01:34;25.00;99.90
60234;DHT22;49514;43.538;-5.708;2023-07-29T00:04:01;24.90;99.90
60234;DHT22;49514;43.538;-5.708;2023-07-29T00:06:27;24.90;99.90
60234;DHT22;49514;43.538;-5.708;2023-07-29T00:08:54;24.90;99.90
60234;DHT22;49514;43.538;-5.708;2023-07-29T00:11:20;24.80;99.90
60234;DHT22;49514;43.538;-5.708;2023-07-29T00:13:47;24.80;99.90
60234;DHT22;49514;43.538;-5.708;2023-07-29T00:16:16;24.80;99.90
60234;DHT22;49514;43.538;-5.708;2023-07-29T00:18:43;24.80;99.90
60234;DHT22;49514;43.538;-5.708;2023-07-29T00:21:10;24.70;99.90
60234;DHT22;49514;43.538;-5.708;2023-07-29T00:23:36;24.70;99.90
60234;DHT22;49514;43.538;-5.708;2023-07-29T00:26:03;24.70;99.90
60234;DHT22;49514;43.538;-5.708;2023-07-29T00:28:29;24.60;99.90
60234;DHT22;49514;43.538;-5.708;2023-07-29T00:30:56;24.70;99.90
60234;DHT22;49514;43.538;-5.708;2023-07-29T00:33:22;24.70;99.90
60234;DHT22;49514;43.538;-5.708;2023-07-29T00:35:49;24.60;99.90
60234;DHT22;49514;43.538;-5.708;2023-07-29T00:38:15;24.70;99.90
60234;DHT22;49514;43.538;-5.708;2023-07-29T00:40:41;24.60;99.90
60234;DHT22;49514;43.538;-5.708;2023-07-29T00:43:08;24.60;99.90
60234;DHT22;49514;43.538;-5.708;2023-07-29T00:45:35;24.60;99.90
60234;DHT22;49514;43.538;-5.708;2023-07-29T00:48:02;24.60;99.90
60234;DHT22;49514;43.538;-5.708;2023-07-29T00:50:30;24.60;99.90
60234;DHT22;49514;43.538;-5.708;2023-07-29T00:52:59;24.70;99.90
60234;DHT22;49514;43.538;-5.708;2023-07-29T00:55:26;24.60;99.90
60234;DHT22;49514;43.538;-5.708;2023-07-29T00:57:54;24.50;99.90
60234;DHT22;49514;43.538;-5.708;2023-07-29T01:00:21;24.50;99.90
60234;DHT22;49514;43.538;-5.708;2023-07-29T01:02:48;24.50;99.90
60234;DHT22;49514;43.538;-5.708;2023-07-29T01:05:15;24.60;99.90
60234;DHT22;49514;43.538;-5.708;2023-07-29T01:07:44;24.50;99.90
60234;DHT22;49514;43.538;-5.708;2023-07-29T01:17:49;24.50;99.90
60234;DHT22;49514;43.538;-5.708;2023-07-29T01:20:19;24.50;99.90
60234;DHT22;49514;43.538;-5.708;2023-07-29T01:22:46;24.50;99.90
60234;DHT22;49514;43.538;-5.708;2023-07-29T01:25:16;24.50;99.90
60234;DHT22;49514;43.538;-5.708;2023-07-29T01:27:45;24.50;99.90
60234;DHT22;49514;43.538;-5.708;2023-07-29T01:30:11;24.50;99.90
60234;DHT22;49514;43.538;-5.708;2023-07-29T01:37:58;24.50;99.90
60234;DHT22;49514;43.538;-5.708;2023-07-29T01:40:27;24.50;99.90
60234;DHT22;49514;43.538;-5.708;2023-07-29T01:42:54;24.40;99.90
60234;DHT22;49514;43.538;-5.708;2023-07-29T01:45:24;24.40;99.90
60234;DHT22;49514;43.538;-5.708;2023-07-29T01:47:52;24.40;99.90
60234;DHT22;49514;43.538;-5.708;2023-07-29T01:50:18;24.30;99.90
60234;DHT22;49514;43.538;-5.708;2023-07-29T01:52:45;24.30;99.90
60234;DHT22;49514;43.538;-5.708;2023-07-29T01:55:11;24.30;99.90
60234;DHT22;49514;43.538;-5.708;2023-07-29T01:57:38;24.30;99.90
60234;DHT22;49514;43.538;-5.708;2023-07-29T02:00:04;24.30;99.90
60234;DHT22;49514;43.538;-5.708;2023-07-29T02:02:41;24.20;99.90
60234;DHT22;49514;43.538;-5.708;2023-07-29T02:05:08;24.20;99.90
60234;DHT22;49514;43.538;-5.708;2023-07-29T02:07:34;24.20;99.90
60234;DHT22;49514;43.538;-5.708;2023-07-29T02:10:00;24.10;99.90
60234;DHT22;49514;43.538;-5.708;2023-07-29T02:12:27;24.10;99.90
60234;DHT22;49514;43.538;-5.708;2023-07-29T02:14:53;24.00;99.90
60234;DHT22;49514;43.538;-5.708;2023-07-29T02:17:20;24.00;99.90
60234;DHT22;49514;43.538;-5.708;2023-07-29T02:19:47;24.00;99.90
60234;DHT22;49514;43.538;-5.708;2023-07-29T02:22:14;24.00;99.90
60234;DHT22;49514;43.538;-5.708;2023-07-29T02:24:40;23.90;99.90
60234;DHT22;49514;43.538;-5.708;2023-07-29T02:27:06;23.90;99.90
60234;DHT22;49514;43.538;-5.708;2023-07-29T02:29:33;23.80;99.90
60234;DHT22;49514;43.538;-5.708;2023-07-29T02:32:00;23.80;99.90
60234;DHT22;49514;43.538;-5.708;2023-07-29T02:34:26;23.80;99.90
60234;DHT22;49514;43.538;-5.708;2023-07-29T02:36:53;23.70;99.90
60234;DHT22;49514;43.538;-5.708;2023-07-29T02:39:19;23.70;99.90
60234;DHT22;49514;43.538;-5.708;2023-07-29T02:41:46;23.70;99.90
60234;DHT22;49514;43.538;-5.708;2023-07-29T02:44:12;23.70;99.90
60234;DHT22;49514;43.538;-5.708;2023-07-29T02:46:38;23.70;99.90
60234;DHT22;49514;43.538;-5.708;2023-07-29T02:49:05;23.70;99.90
60234;DHT22;49514;43.538;-5.708;2023-07-29T02:51:31;23.70;99.90
60234;DHT22;49514;43.538;-5.708;2023-07-29T02:53:58;23.70;99.90
60234;DHT22;49514;43.538;-5.708;2023-07-29T02:56:24;23.60;99.90
60234;DHT22;49514;43.538;-5.708;2023-07-29T02:58:51;23.70;99.90
60234;DHT22;49514;43.538;-5.708;2023-07-29T03:01:18;23.60;99.90
60234;DHT22;49514;43.538;-5.708;2023-07-29T03:03:44;23.60;99.90
60234;DHT22;49514;43.538;-5.708;2023-07-29T03:06:13;23.60;99.90
60234;DHT22;49514;43.538;-5.708;2023-07-29T03:08:39;23.60;99.90
60234;DHT22;49514;43.538;-5.708;2023-07-29T03:11:10;23.60;99.90
60234;DHT22;49514;43.538;-5.708;2023-07-29T03:13:37;23.60;99.90
60234;DHT22;49514;43.538;-5.708;2023-07-29T03:18:33;23.60;99.90
60234;DHT22;49514;43.538;-5.708;2023-07-29T03:20:59;23.50;99.90
60234;DHT22;49514;43.538;-5.708;2023-07-29T03:23:27;23.50;99.90
60234;DHT22;49514;43.538;-5.708;2023-07-29T03:25:57;23.50;99.90
60234;DHT22;49514;43.538;-5.708;2023-07-29T03:28:27;23.50;99.90
60234;DHT22;49514;43.538;-5.708;2023-07-29T03:30:57;23.40;99.90
60234;DHT22;49514;43.538;-5.708;2023-07-29T03:33:24;23.40;99.90
60234;DHT22;49514;43.538;-5.708;2023-07-29T03:35:51;23.40;99.90
60234;DHT22;49514;43.538;-5.708;2023-07-29T03:38:17;23.40;99.90
60234;DHT22;49514;43.538;-5.708;2023-07-29T03:40:44;23.40;99.90
60234;DHT22;49514;43.538;-5.708;2023-07-29T03:43:11;23.40;99.90
60234;DHT22;49514;43.538;-5.708;2023-07-29T03:45:38;23.40;99.90
60234;DHT22;49514;43.538;-5.708;2023-07-29T03:48:06;23.40;99.90
60234;DHT22;49514;43.538;-5.708;2023-07-29T03:50:34;23.40;99.90
60234;DHT22;49514;43.538;-5.708;2023-07-29T03:53:03;23.40;99.90
60234;DHT22;49514;43.538;-5.708;2023-07-29T03:55:30;23.30;99.90
60234;DHT22;49514;43.538;-5.708;2023-07-29T03:57:58;23.30;99.90
60234;DHT22;49514;43.538;-5.708;2023-07-29T04:00:25;23.40;99.90
60234;DHT22;49514;43.538;-5.708;2023-07-29T04:02:53;23.40;99.90
60234;DHT22;49514;43.538;-5.708;2023-07-29T04:05:19;23.40;99.90
60234;DHT22;49514;43.538;-5.708;2023-07-29T04:07:46;23.40;99.90
60234;DHT22;49514;43.538;-5.708;2023-07-29T04:10:13;23.40;99.90
60234;DHT22;49514;43.538;-5.708;2023-07-29T04:12:40;23.40;99.90
60234;DHT22;49514;43.538;-5.708;2023-07-29T04:15:07;23.30;99.90
60234;DHT22;49514;43.538;-5.708;2023-07-29T04:17:34;23.30;99.90
60234;DHT22;49514;43.538;-5.708;2023-07-29T04:20:00;23.40;99.90
60234;DHT22;49514;43.538;-5.708;2023-07-29T04:22:33;23.30;99.90
60234;DHT22;49514;43.538;-5.708;2023-07-29T04:25:00;23.40;99.90
60234;DHT22;49514;43.538;-5.708;2023-07-29T04:27:27;23.40;99.90
60234;DHT22;49514;43.538;-5.708;2023-07-29T04:29:54;23.40;99.90
60234;DHT22;49514;43.538;-5.708;2023-07-29T04:32:20;23.40;99.90
60234;DHT22;49514;43.538;-5.708;2023-07-29T04:34:47;23.40;99.90
60234;DHT22;49514;43.538;-5.708;2023-07-29T04:37:13;23.40;99.90
60234;DHT22;49514;43.538;-5.708;2023-07-29T04:39:40;23.40;99.90
60234;DHT22;49514;43.538;-5.708;2023-07-29T04:42:07;23.40;99.90
60234;DHT22;49514;43.538;-5.708;2023-07-29T04:44:34;23.40;99.90
60234;DHT22;49514;43.538;-5.708;2023-07-29T04:47:02;23.40;99.90
60234;DHT22;49514;43.538;-5.708;2023-07-29T04:49:29;23.40;99.90
60234;DHT22;49514;43.538;-5.708;2023-07-29T04:51:55;23.40;99.90
60234;DHT22;49514;43.538;-5.708;2023-07-29T04:54:22;23.40;99.90
60234;DHT22;49514;43.538;-5.708;2023-07-29T04:56:49;23.40;99.90
60234;DHT22;49514;43.538;-5.708;2023-07-29T04:59:17;23.30;99.90
60234;DHT22;49514;43.538;-5.708;2023-07-29T05:01:44;23.30;99.90
60234;DHT22;49514;43.538;-5.708;2023-07-29T05:04:10;23.30;99.90
60234;DHT22;49514;43.538;-5.708;2023-07-29T05:06:37;23.20;99.90
60234;DHT22;49514;43.538;-5.708;2023-07-29T05:09:14;23.20;99.90
60234;DHT22;49514;43.538;-5.708;2023-07-29T05:11:40;23.20;99.90
60234;DHT22;49514;43.538;-5.708;2023-07-29T05:14:07;23.10;99.90
60234;DHT22;49514;43.538;-5.708;2023-07-29T05:16:36;23.10;99.90
60234;DHT22;49514;43.538;-5.708;2023-07-29T05:19:02;23.10;99.90
60234;DHT22;49514;43.538;-5.708;2023-07-29T05:21:29;23.10;99.90
60234;DHT22;49514;43.538;-5.708;2023-07-29T05:23:56;23.10;99.90
60234;DHT22;49514;43.538;-5.708;2023-07-29T05:26:23;23.10;99.90
60234;DHT22;49514;43.538;-5.708;2023-07-29T05:28:50;23.10;99.90
60234;DHT22;49514;43.538;-5.708;2023-07-29T05:31:17;23.00;99.90
60234;DHT22;49514;43.538;-5.708;2023-07-29T05:33:44;23.00;99.90
60234;DHT22;49514;43.538;-5.708;2023-07-29T05:36:11;23.00;99.90
60234;DHT22;49514;43.538;-5.708;2023-07-29T05:38:38;23.00;99.90
60234;DHT22;49514;43.538;-5.708;2023-07-29T05:41:04;23.00;99.90
60234;DHT22;49514;43.538;-5.708;2023-07-29T05:43:31;23.00;99.90
60234;DHT22;49514;43.538;-5.708;2023-07-29T05:45:58;23.00;99.90
60234;DHT22;49514;43.538;-5.708;2023-07-29T05:48:24;22.90;99.90
60234;DHT22;49514;43.538;-5.708;2023-07-29T05:50:51;22.90;99.90
60234;DHT22;49514;43.538;-5.708;2023-07-29T05:53:18;22.90;99.90
60234;DHT22;49514;43.538;-5.708;2023-07-29T05:55:45;22.80;99.90
60234;DHT22;49514;43.538;-5.708;2023-07-29T05:58:11;22.80;99.90
60234;DHT22;49514;43.538;-5.708;2023-07-29T06:00:39;22.80;99.90
60234;DHT22;49514;43.538;-5.708;2023-07-29T06:03:05;22.80;99.90
60234;DHT22;49514;43.538;-5.708;2023-07-29T06:05:33;22.80;99.90
60234;DHT22;49514;43.538;-5.708;2023-07-29T06:07:59;22.80;99.90
60234;DHT22;49514;43.538;-5.708;2023-07-29T06:10:26;22.90;99.90
60234;DHT22;49514;43.538;-5.708;2023-07-29T06:12:52;22.80;99.90
60234;DHT22;49514;43.538;-5.708;2023-07-29T06:15:19;22.80;99.90
60234;DHT22;49514;43.538;-5.708;2023-07-29T06:17:49;22.80;99.90
60234;DHT22;49514;43.538;-5.708;2023-07-29T06:20:16;22.80;99.90
60234;DHT22;49514;43.538;-5.708;2023-07-29T06:22:42;22.80;99.90
60234;DHT22;49514;43.538;-5.708;2023-07-29T06:25:09;22.90;99.90
60234;DHT22;49514;43.538;-5.708;2023-07-29T06:27:36;22.90;99.90
60234;DHT22;49514;43.538;-5.708;2023-07-29T06:30:03;22.90;99.90
60234;DHT22;49514;43.538;-5.708;2023-07-29T06:32:30;22.90;99.90
60234;DHT22;49514;43.538;-5.708;2023-07-29T06:34:56;23.00;99.90
60234;DHT22;49514;43.538;-5.708;2023-07-29T06:37:23;23.00;99.90
60234;DHT22;49514;43.538;-5.708;2023-07-29T06:39:49;23.00;99.90
60234;DHT22;49514;43.538;-5.708;2023-07-29T06:42:16;23.00;99.90
60234;DHT22;49514;43.538;-5.708;2023-07-29T06:44:42;23.00;99.90
60234;DHT22;49514;43.538;-5.708;2023-07-29T06:47:12;23.00;99.90
60234;DHT22;49514;43.538;-5.708;2023-07-29T06:49:38;23.00;99.90
60234;DHT22;49514;43.538;-5.708;2023-07-29T06:52:05;23.10;99.90
60234;DHT22;49514;43.538;-5.708;2023-07-29T06:54:32;23.10;99.90
60234;DHT22;49514;43.538;-5.708;2023-07-29T06:56:58;23.20;99.90
60234;DHT22;49514;43.538;-5.708;2023-07-29T06:59:25;23.20;99.90
60234;DHT22;49514;43.538;-5.708;2023-07-29T07:01:52;23.30;99.90
60234;DHT22;49514;43.538;-5.708;2023-07-29T07:04:18;23.40;99.90
60234;DHT22;49514;43.538;-5.708;2023-07-29T07:06:45;23.50;99.90
60234;DHT22;49514;43.538;-5.708;2023-07-29T07:09:12;23.50;99.90
60234;DHT22;49514;43.538;-5.708;2023-07-29T07:11:38;23.60;99.90
60234;DHT22;49514;43.538;-5.708;2023-07-29T07:14:05;23.60;99.90
60234;DHT22;49514;43.538;-5.708;2023-07-29T07:16:32;23.60;99.90
60234;DHT22;49514;43.538;-5.708;2023-07-29T07:18:59;23.60;99.90
60234;DHT22;49514;43.538;-5.708;2023-07-29T07:21:25;23.60;99.90
60234;DHT22;49514;43.538;-5.708;2023-07-29T07:23:52;23.60;99.90
60234;DHT22;49514;43.538;-5.708;2023-07-29T07:26:19;23.60;99.90
60234;DHT22;49514;43.538;-5.708;2023-07-29T07:28:45;23.60;99.90
60234;DHT22;49514;43.538;-5.708;2023-07-29T07:31:12;23.60;99.90
60234;DHT22;49514;43.538;-5.708;2023-07-29T07:33:38;23.70;99.90
60234;DHT22;49514;43.538;-5.708;2023-07-29T07:36:05;23.70;99.90
60234;DHT22;49514;43.538;-5.708;2023-07-29T07:38:32;23.80;99.90
60234;DHT22;49514;43.538;-5.708;2023-07-29T07:40:58;23.80;99.90
60234;DHT22;49514;43.538;-5.708;2023-07-29T07:43:25;23.80;99.90
60234;DHT22;49514;43.538;-5.708;2023-07-29T07:45:57;23.80;99.90
60234;DHT22;49514;43.538;-5.708;2023-07-29T07:48:23;23.90;99.90
60234;DHT22;49514;43.538;-5.708;2023-07-29T07:50:50;23.90;99.90
60234;DHT22;49514;43.538;-5.708;2023-07-29T07:53:17;23.80;99.90
60234;DHT22;49514;43.538;-5.708;2023-07-29T07:55:43;23.70;99.90
60234;DHT22;49514;43.538;-5.708;2023-07-29T07:58:10;23.60;99.90
60234;DHT22;49514;43.538;-5.708;2023-07-29T08:00:37;23.50;99.90
60234;DHT22;49514;43.538;-5.708;2023-07-29T08:03:04;23.40;99.90
60234;DHT22;49514;43.538;-5.708;2023-07-29T08:05:30;23.40;99.90
60234;DHT22;49514;43.538;-5.708;2023-07-29T08:07:58;23.40;99.90
60234;DHT22;49514;43.538;-5.708;2023-07-29T08:10:26;23.40;99.90
60234;DHT22;49514;43.538;-5.708;2023-07-29T08:12:52;23.40;99.90
60234;DHT22;49514;43.538;-5.708;2023-07-29T08:15:21;23.40;99.90
60234;DHT22;49514;43.538;-5.708;2023-07-29T08:17:47;23.50;99.90
60234;DHT22;49514;43.538;-5.708;2023-07-29T08:20:14;23.50;99.90
60234;DHT22;49514;43.538;-5.708;2023-07-29T08:22:41;23.60;99.90
60234;DHT22;49514;43.538;-5.708;2023-07-29T08:25:08;23.50;99.90
60234;DHT22;49514;43.538;-5.708;2023-07-29T08:27:34;23.60;99.90
60234;DHT22;49514;43.538;-5.708;2023-07-29T08:30:01;23.60;99.90
60234;DHT22;49514;43.538;-5.708;2023-07-29T13:55:16;27.60;99.90
60234;DHT22;49514;43.538;-5.708;2023-07-29T13:57:43;27.40;99.90
60234;DHT22;49514;43.538;-5.708;2023-07-29T14:00:10;27.20;99.90
60234;DHT22;49514;43.538;-5.708;2023-07-29T14:02:39;26.90;99.90
60234;DHT22;49514;43.538;-5.708;2023-07-29T14:05:06;26.70;99.90
60234;DHT22;49514;43.538;-5.708;2023-07-29T14:07:33;26.50;99.90
60234;DHT22;49514;43.538;-5.708;2023-07-29T14:10:00;26.40;99.90
60234;DHT22;49514;43.538;-5.708;2023-07-29T14:12:27;26.30;99.90
60234;DHT22;49514;43.538;-5.708;2023-07-29T14:14:54;26.20;99.90
60234;DHT22;49514;43.538;-5.708;2023-07-29T14:17:20;26.10;99.90
60234;DHT22;49514;43.538;-5.708;2023-07-29T14:19:47;26.10;99.90
60234;DHT22;49514;43.538;-5.708;2023-07-29T14:22:13;26.10;99.90
60234;DHT22;49514;43.538;-5.708;2023-07-29T14:24:40;26.10;99.90
60234;DHT22;49514;43.538;-5.708;2023-07-29T14:27:07;26.10;99.90
60234;DHT22;49514;43.538;-5.708;2023-07-29T14:29:33;26.20;99.90
60234;DHT22;49514;43.538;-5.708;2023-07-29T14:32:00;26.20;99.90
60234;DHT22;49514;43.538;-5.708;2023-07-29T14:34:27;26.20;99.90
60234;DHT22;49514;43.538;-5.708;2023-07-29T14:36:53;26.20;99.90
60234;DHT22;49514;43.538;-5.708;2023-07-29T14:39:20;26.20;99.90
60234;DHT22;49514;43.538;-5.708;2023-07-29T14:41:46;26.20;99.90
60234;DHT22;49514;43.538;-5.708;2023-07-29T14:44:13;26.10;99.90
60234;DHT22;49514;43.538;-5.708;2023-07-29T14:46:40;26.20;99.90
60234;DHT22;49514;43.538;-5.708;2023-07-29T14:49:07;26.20;99.90
60234;DHT22;49514;43.538;-5.708;2023-07-29T14:51:34;26.10;99.90
60234;DHT22;49514;43.538;-5.708;2023-07-29T14:54:01;26.00;99.90
60234;DHT22;49514;43.538;-5.708;2023-07-29T14:56:28;25.90;99.90
60234;DHT22;49514;43.538;-5.708;2023-07-29T14:58:54;25.90;99.90
60234;DHT22;49514;43.538;-5.708;2023-07-29T15:01:21;25.90;99.90
60234;DHT22;49514;43.538;-5.708;2023-07-29T15:03:48;25.90;99.90
60234;DHT22;49514;43.538;-5.708;2023-07-29T15:06:15;25.90;99.90
60234;DHT22;49514;43.538;-5.708;2023-07-29T15:08:42;25.80;99.90
60234;DHT22;49514;43.538;-5.708;2023-07-29T15:11:08;25.80;99.90
60234;DHT22;49514;43.538;-5.708;2023-07-29T15:13:35;25.80;99.90
60234;DHT22;49514;43.538;-5.708;2023-07-29T15:16:02;25.80;99.90
60234;DHT22;49514;43.538;-5.708;2023-07-29T15:18:29;25.90;99.90
60234;DHT22;49514;43.538;-5.708;2023-07-29T15:20:57;25.90;99.90
60234;DHT22;49514;43.538;-5.708;2023-07-29T15:23:24;25.90;99.90
60234;DHT22;49514;43.538;-5.708;2023-07-29T15:25:50;25.90;99.90
60234;DHT22;49514;43.538;-5.708;2023-07-29T15:28:17;25.90;99.90
60234;DHT22;49514;43.538;-5.708;2023-07-29T15:30:44;25.90;99.90
60234;DHT22;49514;43.538;-5.708;2023-07-29T15:33:11;25.80;99.90
60234;DHT22;49514;43.538;-5.708;2023-07-29T15:35:38;25.70;99.90
60234;DHT22;49514;43.538;-5.708;2023-07-29T15:38:06;25.70;99.90
60234;DHT22;49514;43.538;-5.708;2023-07-29T15:40:33;25.60;99.90
60234;DHT22;49514;43.538;-5.708;2023-07-29T15:42:59;25.50;99.90
60234;DHT22;49514;43.538;-5.708;2023-07-29T15:45:26;25.40;99.90
60234;DHT22;49514;43.538;-5.708;2023-07-29T15:47:53;25.30;99.90
60234;DHT22;49514;43.538;-5.708;2023-07-29T15:50:20;25.20;99.90
60234;DHT22;49514;43.538;-5.708;2023-07-29T15:52:46;25.10;99.90
60234;DHT22;49514;43.538;-5.708;2023-07-29T15:55:13;25.00;99.90
60234;DHT22;49514;43.538;-5.708;2023-07-29T15:57:40;25.00;99.90
60234;DHT22;49514;43.538;-5.708;2023-07-29T16:00:08;25.00;99.90
60234;DHT22;49514;43.538;-5.708;2023-07-29T16:02:38;25.10;99.90
60234;DHT22;49514;43.538;-5.708;2023-07-29T16:05:06;25.00;99.90
60234;DHT22;49514;43.538;-5.708;2023-07-29T16:07:33;25.10;99.90
60234;DHT22;49514;43.538;-5.708;2023-07-29T16:10:00;25.10;99.90
60234;DHT22;49514;43.538;-5.708;2023-07-29T16:12:27;25.00;99.90
60234;DHT22;49514;43.538;-5.708;2023-07-29T16:14:55;25.00;99.90
60234;DHT22;49514;43.538;-5.708;2023-07-29T16:17:22;24.90;99.90
60234;DHT22;49514;43.538;-5.708;2023-07-29T16:19:59;24.80;99.90
60234;DHT22;49514;43.538;-5.708;2023-07-29T16:22:26;24.70;99.90
60234;DHT22;49514;43.538;-5.708;2023-07-29T16:24:53;24.50;99.90
60234;DHT22;49514;43.538;-5.708;2023-07-29T16:27:20;24.40;99.90
60234;DHT22;49514;43.538;-5.708;2023-07-29T16:29:47;24.40;99.90
60234;DHT22;49514;43.538;-5.708;2023-07-29T16:32:15;24.40;99.90
60234;DHT22;49514;43.538;-5.708;2023-07-29T16:34:42;24.30;99.90
60234;DHT22;49514;43.538;-5.708;2023-07-29T16:37:08;24.20;99.90
60234;DHT22;49514;43.538;-5.708;2023-07-29T16:39:35;24.10;99.90
60234;DHT22;49514;43.538;-5.708;2023-07-29T16:42:02;24.10;99.90
60234;DHT22;49514;43.538;-5.708;2023-07-29T16:44:29;24.10;99.90
60234;DHT22;49514;43.538;-5.708;2023-07-29T16:46:56;24.00;99.90
60234;DHT22;49514;43.538;-5.708;2023-07-29T16:49:23;23.90;99.90
60234;DHT22;49514;43.538;-5.708;2023-07-29T16:51:50;23.80;99.90
60234;DHT22;49514;43.538;-5.708;2023-07-29T16:54:17;23.70;99.90
60234;DHT22;49514;43.538;-5.708;2023-07-29T16:56:47;23.70;99.90
60234;DHT22;49514;43.538;-5.708;2023-07-29T16:59:14;23.70;99.90
60234;DHT22;49514;43.538;-5.708;2023-07-29T17:01:41;23.80;99.90
60234;DHT22;49514;43.538;-5.708;2023-07-29T17:04:08;23.70;99.90
60234;DHT22;49514;43.538;-5.708;2023-07-29T17:06:34;23.60;99.90
60234;DHT22;49514;43.538;-5.708;2023-07-29T17:09:01;23.60;99.90
60234;DHT22;49514;43.538;-5.708;2023-07-29T17:11:28;23.60;99.90
60234;DHT22;49514;43.538;-5.708;2023-07-29T17:13:54;23.60;99.90
60234;DHT22;49514;43.538;-5.708;2023-07-29T17:16:21;23.60;99.90
60234;DHT22;49514;43.538;-5.708;2023-07-29T17:18:48;23.50;99.90
60234;DHT22;49514;43.538;-5.708;2023-07-29T17:21:14;23.50;99.90
60234;DHT22;49514;43.538;-5.708;2023-07-29T17:23:41;23.50;99.90
60234;DHT22;49514;43.538;-5.708;2023-07-29T17:26:07;23.50;99.90
60234;DHT22;49514;43.538;-5.708;2023-07-29T17:28:37;23.50;99.90
60234;DHT22;49514;43.538;-5.708;2023-07-29T17:31:03;23.50;99.90
60234;DHT22;49514;43.538;-5.708;2023-07-29T17:33:30;23.50;99.90
60234;DHT22;49514;43.538;-5.708;2023-07-29T17:35:57;23.50;99.90
60234;DHT22;49514;43.538;-5.708;2023-07-29T17:38:23;23.50;99.90
60234;DHT22;49514;43.538;-5.708;2023-07-29T17:40:50;23.50;99.90
60234;DHT22;49514;43.538;-5.708;2023-07-29T17:43:18;23.50;99.90
60234;DHT22;49514;43.538;-5.708;2023-07-29T17:45:45;23.40;99.90
60234;DHT22;49514;43.538;-5.708;2023-07-29T17:48:12;23.40;99.90
60234;DHT22;49514;43.538;-5.708;2023-07-29T17:50:40;23.40;99.90
60234;DHT22;49514;43.538;-5.708;2023-07-29T17:53:07;23.40;99.90
60234;DHT22;49514;43.538;-5.708;2023-07-29T17:55:38;23.40;99.90
60234;DHT22;49514;43.538;-5.708;2023-07-29T17:58:08;23.40;99.90
60234;DHT22;49514;43.538;-5.708;2023-07-29T18:00:35;23.30;99.90
60234;DHT22;49514;43.538;-5.708;2023-07-29T18:03:02;23.30;99.90
60234;DHT22;49514;43.538;-5.708;2023-07-29T18:05:29;23.30;99.90
60234;DHT22;49514;43.538;-5.708;2023-07-29T18:07:56;23.30;99.90
60234;DHT22;49514;43.538;-5.708;2023-07-29T18:10:22;23.20;99.90
60234;DHT22;49514;43.538;-5.708;2023-07-29T18:12:50;23.30;99.90
60234;DHT22;49514;43.538;-5.708;2023-07-29T18:15:17;23.30;99.90
60234;DHT22;49514;43.538;-5.708;2023-07-29T18:17:44;23.30;99.90
60234;DHT22;49514;43.538;-5.708;2023-07-29T18:20:11;23.30;99.90
60234;DHT22;49514;43.538;-5.708;2023-07-29T18:22:37;23.30;99.90
60234;DHT22;49514;43.538;-5.708;2023-07-29T18:25:05;23.30;99.90
60234;DHT22;49514;43.538;-5.708;2023-07-29T18:27:31;23.30;99.90
60234;DHT22;49514;43.538;-5.708;2023-07-29T18:29:58;23.30;99.90
60234;DHT22;49514;43.538;-5.708;2023-07-29T18:32:25;23.30;99.90
60234;DHT22;49514;43.538;-5.708;2023-07-29T18:34:51;23.30;99.90
60234;DHT22;49514;43.538;-5.708;2023-07-29T18:37:18;23.20;99.90
60234;DHT22;49514;43.538;-5.708;2023-07-29T18:39:45;23.20;99.90
60234;DHT22;49514;43.538;-5.708;2023-07-29T18:42:12;23.10;99.90
60234;DHT22;49514;43.538;-5.708;2023-07-29T18:44:39;23.10;99.90
60234;DHT22;49514;43.538;-5.708;2023-07-29T18:47:06;23.00;99.90
60234;DHT22;49514;43.538;-5.708;2023-07-29T18:49:34;22.90;99.90
60234;DHT22;49514;43.538;-5.708;2023-07-29T18:52:01;22.90;99.90
60234;DHT22;49514;43.538;-5.708;2023-07-29T18:54:27;22.80;99.90
60234;DHT22;49514;43.538;-5.708;2023-07-29T18:56:54;22.70;99.90
60234;DHT22;49514;43.538;-5.708;2023-07-29T18:59:22;22.70;99.90
60234;DHT22;49514;43.538;-5.708;2023-07-29T19:01:48;22.70;99.90
60234;DHT22;49514;43.538;-5.708;2023-07-29T19:04:15;22.80;99.90
60234;DHT22;49514;43.538;-5.708;2023-07-29T19:06:42;22.80;99.90
60234;DHT22;49514;43.538;-5.708;2023-07-29T19:09:09;22.80;99.90
60234;DHT22;49514;43.538;-5.708;2023-07-29T19:11:36;22.90;99.90
60234;DHT22;49514;43.538;-5.708;2023-07-29T19:14:03;22.80;99.90
60234;DHT22;49514;43.538;-5.708;2023-07-29T19:16:29;22.90;99.90
60234;DHT22;49514;43.538;-5.708;2023-07-29T19:18:56;22.90;99.90
60234;DHT22;49514;43.538;-5.708;2023-07-29T19:21:23;22.90;99.90
60234;DHT22;49514;43.538;-5.708;2023-07-29T19:23:50;22.90;99.90
60234;DHT22;49514;43.538;-5.708;2023-07-29T19:26:17;22.90;99.90
60234;DHT22;49514;43.538;-5.708;2023-07-29T19:28:49;22.90;99.90
60234;DHT22;49514;43.538;-5.708;2023-07-29T19:31:16;22.90;99.90
60234;DHT22;49514;43.538;-5.708;2023-07-29T19:33:43;22.90;99.90
60234;DHT22;49514;43.538;-5.708;2023-07-29T19:36:10;22.90;99.90
60234;DHT22;49514;43.538;-5.708;2023-07-29T19:38:37;22.90;99.90
60234;DHT22;49514;43.538;-5.708;2023-07-29T19:41:04;22.90;99.90
60234;DHT22;49514;43.538;-5.708;2023-07-29T19:43:31;22.90;99.90
60234;DHT22;49514;43.538;-5.708;2023-07-29T19:45:58;22.90;99.90
60234;DHT22;49514;43.538;-5.708;2023-07-29T19:48:30;22.80;99.90
60234;DHT22;49514;43.538;-5.708;2023-07-29T19:50:59;22.80;99.90
60234;DHT22;49514;43.538;-5.708;2023-07-29T19:53:26;22.90;99.90
60234;DHT22;49514;43.538;-5.708;2023-07-29T19:55:53;22.90;99.90
60234;DHT22;49514;43.538;-5.708;2023-07-29T19:58:20;22.90;99.90
60234;DHT22;49514;43.538;-5.708;2023-07-29T20:00:51;22.80;99.90
60234;DHT22;49514;43.538;-5.708;2023-07-29T20:03:19;22.80;99.90
60234;DHT22;49514;43.538;-5.708;2023-07-29T20:05:48;22.70;99.90
60234;DHT22;49514;43.538;-5.708;2023-07-29T20:08:15;22.70;99.90
60234;DHT22;49514;43.538;-5.708;2023-07-29T20:10:43;22.60;99.90
60234;DHT22;49514;43.538;-5.708;2023-07-29T20:13:13;22.60;99.90
60234;DHT22;49514;43.538;-5.708;2023-07-29T20:15:40;22.60;99.90
60234;DHT22;49514;43.538;-5.708;2023-07-29T20:18:07;22.60;99.90
60234;DHT22;49514;43.538;-5.708;2023-07-29T20:20:34;22.60;99.90
60234;DHT22;49514;43.538;-5.708;2023-07-29T20:23:01;22.50;99.90
60234;DHT22;49514;43.538;-5.708;2023-07-29T20:25:29;22.50;99.90
60234;DHT22;49514;43.538;-5.708;2023-07-29T20:27:56;22.50;99.90
60234;DHT22;49514;43.538;-5.708;2023-07-29T20:30:23;22.50;99.90
60234;DHT22;49514;43.538;-5.708;2023-07-29T20:32:50;22.50;99.90
60234;DHT22;49514;43.538;-5.708;2023-07-29T20:35:17;22.60;99.90
60234;DHT22;49514;43.538;-5.708;2023-07-29T20:37:44;22.50;99.90
60234;DHT22;49514;43.538;-5.708;2023-07-29T20:40:11;22.60;99.90
60234;DHT22;49514;43.538;-5.708;2023-07-29T20:42:40;22.50;99.90
60234;DHT22;49514;43.538;-5.708;2023-07-29T20:45:07;22.60;99.90
60234;DHT22;49514;43.538;-5.708;2023-07-29T20:47:35;22.50;99.90
60234;DHT22;49514;43.538;-5.708;2023-07-29T20:50:03;22.60;99.90
60234;DHT22;49514;43.538;-5.708;2023-07-29T20:52:31;22.50;99.90